createdAt,value
2018-07-21T00:00:11.208Z,97271.89
2018-07-21T00:02:40.624Z,97277.36
2018-07-21T00:05:09.338Z,97266.44
2018-07-21T00:07:37.959Z,97265.22
2018-07-21T00:10:06.736Z,97260.45
2018-07-21T00:12:35.349Z,97256.28
2018-07-21T00:15:04.539Z,97259.88
2018-07-21T00:17:33.179Z,97255.14
2018-07-21T00:20:01.800Z,97263.78
2018-07-21T00:22:30.434Z,97266.09
2018-07-21T00:24:59.028Z,97265.44
2018-07-21T00:27:27.648Z,97264.50
2018-07-21T00:29:56.247Z,97264.94
2018-07-21T00:32:24.857Z,97267.02
2018-07-21T00:34:53.586Z,97268.59
2018-07-21T00:37:23.767Z,97273.77
2018-07-21T00:39:53.092Z,97270.29
2018-07-21T00:42:21.753Z,97273.88
2018-07-21T00:44:50.620Z,97264.41
2018-07-21T00:47:20.183Z,97264.76
2018-07-21T00:49:48.910Z,97264.25
2018-07-21T00:52:17.480Z,97260.95
2018-07-21T00:54:46.248Z,97257.39
2018-07-21T00:57:14.913Z,97254.12
2018-07-21T00:59:43.949Z,97247.09
2018-07-21T01:02:13.144Z,97249.88
2018-07-21T01:04:41.752Z,97262.39
2018-07-21T01:07:10.342Z,97259.08
2018-07-21T01:09:38.977Z,97257.72
2018-07-21T01:12:07.713Z,97251.54
2018-07-21T01:14:36.362Z,97254.12
2018-07-21T01:17:04.985Z,97254.41
2018-07-21T01:19:33.690Z,97253.15
2018-07-21T01:22:02.487Z,97255.41
2018-07-21T01:24:31.109Z,97264.53
2018-07-21T01:26:59.728Z,97253.73
2018-07-21T01:29:28.302Z,97260.27
2018-07-21T01:31:56.889Z,97254.48
2018-07-21T01:34:25.874Z,97253.34
2018-07-21T01:36:54.835Z,97251.61
2018-07-21T01:39:23.388Z,97246.00
2018-07-21T01:41:52.075Z,97247.66
2018-07-21T01:44:20.651Z,97243.64
2018-07-21T01:46:49.318Z,97244.25
2018-07-21T01:49:17.926Z,97243.17
2018-07-21T01:51:46.451Z,97231.00
2018-07-21T01:54:15.101Z,97234.44
2018-07-21T01:56:43.666Z,97237.64
2018-07-21T01:59:12.287Z,97233.15
2018-07-21T02:01:40.913Z,97239.90
2018-07-21T02:04:09.506Z,97244.70
2018-07-21T02:06:38.191Z,97240.40
2018-07-21T02:09:08.671Z,97234.94
2018-07-21T02:11:37.259Z,97233.08
2018-07-21T02:14:05.910Z,97234.52
2018-07-21T02:16:34.643Z,97235.92
2018-07-21T02:19:03.519Z,97233.48
2018-07-21T02:21:32.135Z,97229.67
2018-07-21T02:24:00.692Z,97225.07
2018-07-21T02:26:29.651Z,97222.34
2018-07-21T02:28:58.240Z,97219.76
2018-07-21T02:31:26.893Z,97222.70
2018-07-21T02:33:55.487Z,97223.38
2018-07-21T02:36:24.470Z,97223.88
2018-07-21T02:38:53.041Z,97224.77
2018-07-21T02:41:21.861Z,97228.35
2018-07-21T02:43:50.423Z,97225.24
2018-07-21T02:46:19.778Z,97223.16
2018-07-21T02:48:48.369Z,97221.00
2018-07-21T02:51:16.991Z,97223.66
2018-07-21T02:53:45.756Z,97222.34
2018-07-21T02:56:14.430Z,97220.27
2018-07-21T02:58:42.986Z,97215.40
2018-07-21T03:01:11.888Z,97201.77
2018-07-21T03:03:40.488Z,97198.96
2018-07-21T03:06:09.144Z,97199.70
2018-07-21T03:08:37.736Z,97205.77
2018-07-21T03:11:06.509Z,97200.92
2018-07-21T03:13:35.123Z,97197.89
2018-07-21T03:16:04.581Z,97202.92
2018-07-21T03:18:33.267Z,97203.22
2018-07-21T03:21:01.941Z,97207.16
2018-07-21T03:23:31.028Z,97202.56
2018-07-21T03:25:59.662Z,97196.67
2018-07-21T03:28:28.355Z,97193.73
2018-07-21T03:30:57.027Z,97201.00
2018-07-21T03:33:25.650Z,97195.38
2018-07-21T03:35:54.367Z,97197.77
2018-07-21T03:38:22.953Z,97205.22
2018-07-21T03:40:51.814Z,97204.75
2018-07-21T03:43:21.039Z,97207.05
2018-07-21T03:45:50.368Z,97212.94
2018-07-21T03:48:18.958Z,97219.75
2018-07-21T03:50:47.555Z,97217.88
2018-07-21T03:53:16.168Z,97215.94
2018-07-21T03:55:45.525Z,97219.31
2018-07-21T03:58:14.162Z,97216.66
2018-07-21T04:00:42.748Z,97219.09
2018-07-21T04:03:11.521Z,97221.30
2018-07-21T04:05:40.266Z,97234.53
2018-07-21T04:08:08.904Z,97227.72
2018-07-21T04:10:37.737Z,97234.24
2018-07-21T04:13:07.160Z,97231.80
2018-07-21T04:15:35.868Z,97231.94
2018-07-21T04:18:05.094Z,97229.22
2018-07-21T04:20:33.711Z,97234.08
2018-07-21T04:23:02.376Z,97244.67
2018-07-21T04:25:30.991Z,97245.19
2018-07-21T04:27:59.579Z,97249.77
2018-07-21T04:30:28.200Z,97249.84
2018-07-21T04:32:56.768Z,97255.68
2018-07-21T04:35:25.352Z,97256.03
2018-07-21T04:37:53.957Z,97261.62
2018-07-21T04:40:22.610Z,97266.20
2018-07-21T04:42:51.223Z,97264.27
2018-07-21T04:45:19.789Z,97269.80
2018-07-21T04:47:48.406Z,97269.05
2018-07-21T04:50:21.497Z,97269.78
2018-07-21T04:52:50.176Z,97273.52
2018-07-21T04:55:19.092Z,97271.94
2018-07-21T04:57:47.846Z,97276.12
2018-07-21T05:00:16.489Z,97273.14
2018-07-21T05:02:45.095Z,97275.72
2018-07-21T05:05:13.955Z,97270.05
2018-07-21T05:07:43.628Z,97265.55
2018-07-21T05:10:12.370Z,97267.31
2018-07-21T05:12:40.927Z,97265.58
2018-07-21T05:15:09.608Z,97268.92
2018-07-21T05:17:38.249Z,97268.98
2018-07-21T05:20:07.443Z,97272.72
2018-07-21T05:22:36.068Z,97276.92
2018-07-21T05:25:05.286Z,97274.98
2018-07-21T05:27:33.883Z,97281.00
2018-07-21T05:30:02.528Z,97284.12
2018-07-21T05:32:31.155Z,97291.33
2018-07-21T05:34:59.716Z,97291.01
2018-07-21T05:37:28.368Z,97289.56
2018-07-21T05:39:57.002Z,97297.77
2018-07-21T05:42:25.656Z,97292.00
2018-07-21T05:44:55.125Z,97300.05
2018-07-21T05:47:23.873Z,97295.98
2018-07-21T05:49:52.519Z,97297.13
2018-07-21T05:52:21.212Z,97302.66
2018-07-21T05:54:49.906Z,97304.66
2018-07-21T05:57:18.508Z,97313.30
2018-07-21T05:59:47.328Z,97309.73
2018-07-21T06:02:16.694Z,97314.30
2018-07-21T06:04:45.748Z,97318.38
2018-07-21T06:07:14.369Z,97322.84
2018-07-21T06:09:43.004Z,97315.08
2018-07-21T06:12:11.719Z,97320.90
2018-07-21T06:14:40.373Z,97323.42
2018-07-21T06:17:09.088Z,97331.15
2018-07-21T06:19:37.648Z,97334.59
2018-07-21T06:22:06.334Z,97325.61
2018-07-21T06:24:34.947Z,97327.77
2018-07-21T06:27:04.311Z,97328.95
2018-07-21T06:29:32.865Z,97330.32
2018-07-21T06:32:01.459Z,97330.03
2018-07-21T06:34:30.064Z,97333.70
2018-07-21T06:36:58.657Z,97339.55
2018-07-21T06:39:27.292Z,97332.73
2018-07-21T06:41:55.904Z,97340.87
2018-07-21T06:44:25.208Z,97339.73
2018-07-21T06:46:53.898Z,97341.50
2018-07-21T06:49:22.570Z,97337.51
2018-07-21T06:51:51.185Z,97337.83
2018-07-21T06:54:19.822Z,97331.92
2018-07-21T06:56:48.516Z,97332.34
2018-07-21T06:59:17.171Z,97333.54
2018-07-21T07:01:45.755Z,97332.28
2018-07-21T07:04:14.513Z,97338.28
2018-07-21T07:06:43.209Z,97333.00
2018-07-21T07:09:12.395Z,97343.31
2018-07-21T07:11:41.248Z,97339.27
2018-07-21T07:14:09.895Z,97340.42
2018-07-21T07:16:38.570Z,97340.52
2018-07-21T07:19:07.176Z,97347.56
2018-07-21T07:21:35.853Z,97348.45
2018-07-21T07:24:04.710Z,97353.19
2018-07-21T07:26:33.924Z,97351.95
2018-07-21T07:29:03.162Z,97355.05
2018-07-21T07:31:32.544Z,97348.30
2018-07-21T07:34:01.257Z,97353.47
2018-07-21T07:36:29.903Z,97351.88
2018-07-21T07:38:59.083Z,97347.53
2018-07-21T07:41:28.343Z,97350.70
2018-07-21T07:43:56.944Z,97352.09
2018-07-21T07:46:25.695Z,97349.33
2018-07-21T07:48:55.044Z,97355.31
2018-07-21T07:51:24.270Z,97351.45
2018-07-21T07:53:52.884Z,97359.64
2018-07-21T07:56:21.515Z,97353.60
2018-07-21T07:58:50.270Z,97354.76
2018-07-21T08:01:18.966Z,97368.57
2018-07-21T08:03:47.652Z,97361.59
2018-07-21T08:06:16.311Z,97361.92
2018-07-21T08:08:44.908Z,97360.55
2018-07-21T08:11:14.079Z,97366.16
2018-07-21T08:13:42.721Z,97360.63
2018-07-21T08:16:11.325Z,97361.06
2018-07-21T08:18:40.006Z,97360.70
2018-07-21T08:21:09.252Z,97365.27
2018-07-21T08:23:37.971Z,97363.23
2018-07-21T08:26:06.753Z,97368.70
2018-07-21T08:28:35.416Z,97368.47
2018-07-21T08:31:04.141Z,97371.48
2018-07-21T08:33:32.800Z,97370.80
2018-07-21T08:36:01.694Z,97366.84
2018-07-21T08:38:30.566Z,97370.70
2018-07-21T08:40:59.225Z,97374.95
2018-07-21T08:43:27.925Z,97380.77
2018-07-21T08:45:56.578Z,97372.42
2018-07-21T08:48:25.187Z,97380.77
2018-07-21T08:50:53.860Z,97381.86
2018-07-21T08:53:22.523Z,97380.84
2018-07-21T08:55:51.195Z,97387.36
2018-07-21T08:58:21.253Z,97394.41
2018-07-21T09:00:49.943Z,97382.19
2018-07-21T09:03:18.668Z,97391.31
2018-07-21T09:05:47.308Z,97389.63
2018-07-21T09:08:15.939Z,97394.52
2018-07-21T09:10:44.506Z,97396.88
2018-07-21T09:13:13.231Z,97403.26
2018-07-21T09:15:41.856Z,97402.06
2018-07-21T09:18:10.455Z,97401.75
2018-07-21T09:20:39.260Z,97402.91
2018-07-21T09:23:07.876Z,97398.89
2018-07-21T09:25:37.128Z,97400.91
2018-07-21T09:28:06.828Z,97401.50
2018-07-21T09:30:36.347Z,97403.88
2018-07-21T09:33:05.053Z,97398.05
2018-07-21T09:35:33.786Z,97399.34
2018-07-21T09:38:02.450Z,97403.73
2018-07-21T09:40:31.806Z,97406.39
2018-07-21T09:43:00.450Z,97411.39
2018-07-21T09:45:30.278Z,97409.25
2018-07-21T09:47:59.025Z,97415.78
2018-07-21T09:50:27.658Z,97422.42
2018-07-21T09:52:56.308Z,97419.74
2018-07-21T09:55:24.950Z,97420.25
2018-07-21T09:57:54.373Z,97415.71
2018-07-21T10:00:28.219Z,97424.58
2018-07-21T10:02:57.268Z,97427.70
2018-07-21T10:05:26.082Z,97425.41
2018-07-21T10:07:54.790Z,97426.70
2018-07-21T10:10:24.552Z,97432.67
2018-07-21T10:12:54.196Z,97422.80
2018-07-21T10:15:26.401Z,97429.43
2018-07-21T10:17:55.291Z,97429.74
2018-07-21T10:20:23.970Z,97438.00
2018-07-21T10:22:53.097Z,97431.75
2018-07-21T10:25:27.078Z,97435.70
2018-07-21T10:28:00.938Z,97431.58
2018-07-21T10:30:29.750Z,97436.55
2018-07-21T10:32:58.476Z,97438.92
2018-07-21T10:35:27.228Z,97441.08
2018-07-21T10:37:55.872Z,97437.19
2018-07-21T10:40:25.242Z,97438.24
2018-07-21T10:42:54.518Z,97435.97
2018-07-21T10:45:24.074Z,97445.80
2018-07-21T10:47:52.831Z,97446.33
2018-07-21T10:50:21.721Z,97447.05
2018-07-21T10:52:52.655Z,97452.36
2018-07-21T10:55:21.653Z,97446.54
2018-07-21T10:57:50.507Z,97443.23
2018-07-21T11:00:19.609Z,97445.39
2018-07-21T11:02:49.172Z,97443.45
2018-07-21T11:05:18.028Z,97449.48
2018-07-21T11:07:46.876Z,97442.01
2018-07-21T11:10:15.537Z,97440.71
2018-07-21T11:12:44.839Z,97440.86
2018-07-21T11:15:14.636Z,97441.91
2018-07-21T11:17:43.290Z,97433.60
2018-07-21T11:20:12.306Z,97437.80
2018-07-21T11:22:41.295Z,97436.06
2018-07-21T11:25:11.205Z,97433.12
2018-07-21T11:27:40.021Z,97434.53
2018-07-21T11:30:08.731Z,97434.61
2018-07-21T11:32:38.074Z,97440.29
2018-07-21T11:35:07.564Z,97438.85
2018-07-21T11:37:36.236Z,97434.00
2018-07-21T11:40:05.109Z,97443.20
2018-07-21T11:42:34.174Z,97443.05
2018-07-21T11:45:02.844Z,97441.97
2018-07-21T11:47:31.605Z,97438.20
2018-07-21T11:50:00.307Z,97438.77
2018-07-21T11:52:28.987Z,97436.30
2018-07-21T11:54:57.809Z,97440.25
2018-07-21T11:57:26.544Z,97436.95
2018-07-21T11:59:55.346Z,97428.05
2018-07-21T12:02:24.814Z,97426.13
2018-07-21T12:04:53.764Z,97428.11
2018-07-21T12:07:22.537Z,97425.58
2018-07-21T12:09:51.472Z,97425.73
2018-07-21T12:12:20.149Z,97428.95
2018-07-21T12:14:49.006Z,97426.00
2018-07-21T12:17:17.734Z,97423.91
2018-07-21T12:19:46.743Z,97427.65
2018-07-21T12:22:15.488Z,97430.41
2018-07-21T12:24:44.144Z,97427.43
2018-07-21T12:27:13.459Z,97424.76
2018-07-21T12:29:42.487Z,97429.38
2018-07-21T12:32:11.339Z,97427.58
2018-07-21T12:34:40.063Z,97416.66
2018-07-21T12:37:08.873Z,97417.74
2018-07-21T12:39:37.548Z,97421.23
2018-07-21T12:42:09.022Z,97417.51
2018-07-21T12:44:38.015Z,97419.02
2018-07-21T12:47:07.767Z,97413.35
2018-07-21T12:49:36.518Z,97410.38
2018-07-21T12:52:05.404Z,97412.17
2018-07-21T12:54:34.401Z,97404.86
2018-07-21T12:57:04.333Z,97413.14
2018-07-21T12:59:33.130Z,97409.36
2018-07-21T13:02:01.877Z,97374.22
2018-07-21T13:04:36.991Z,97399.48
2018-07-21T13:07:05.776Z,97402.72
2018-07-21T13:09:35.153Z,97402.70
2018-07-21T13:12:03.940Z,97398.14
2018-07-21T13:14:32.659Z,97398.10
2018-07-21T13:17:01.331Z,97395.64
2018-07-21T13:19:30.075Z,97401.97
2018-07-21T13:21:59.023Z,97398.73
2018-07-21T13:24:27.742Z,97400.05
2018-07-21T13:26:56.502Z,97398.93
2018-07-21T13:29:25.205Z,97402.30
2018-07-21T13:31:53.925Z,97398.53
2018-07-21T13:34:22.521Z,97394.34
2018-07-21T13:36:51.251Z,97394.95
2018-07-21T13:39:20.038Z,97396.17
2018-07-21T13:41:48.922Z,97399.05
2018-07-21T13:44:17.692Z,97399.77
2018-07-21T13:46:46.320Z,97398.36
2018-07-21T13:49:15.788Z,97363.69
2018-07-21T13:51:44.499Z,97392.46
2018-07-21T13:54:13.180Z,97394.41
2018-07-21T13:56:41.897Z,97396.61
2018-07-21T13:59:10.834Z,97396.56
2018-07-21T14:01:39.512Z,97394.06
2018-07-21T14:04:08.324Z,97393.42
2018-07-21T14:06:37.030Z,97391.16
2018-07-21T14:09:07.801Z,97384.20
2018-07-21T14:11:37.470Z,97388.71
2018-07-21T14:14:06.468Z,97388.97
2018-07-21T14:16:35.341Z,97381.77
2018-07-21T14:19:04.082Z,97384.30
2018-07-21T14:21:32.831Z,97384.02
2018-07-21T14:24:01.542Z,97387.72
2018-07-21T14:26:30.529Z,97379.47
2018-07-21T14:28:59.299Z,97378.30
2018-07-21T14:31:27.989Z,97378.59
2018-07-21T14:33:56.741Z,97379.72
2018-07-21T14:36:25.578Z,97382.23
2018-07-21T14:38:56.268Z,97381.95
2018-07-21T14:41:24.979Z,97386.80
2018-07-21T14:43:53.795Z,97384.48
2018-07-21T14:46:23.288Z,97383.13
2018-07-21T14:48:52.595Z,97388.74
2018-07-21T14:51:21.771Z,97394.83
2018-07-21T14:53:50.445Z,97390.30
2018-07-21T14:56:19.290Z,97390.25
2018-07-21T14:58:47.940Z,97392.00
2018-07-21T15:01:16.858Z,97395.06
2018-07-21T15:03:45.762Z,97392.41
2018-07-21T15:06:15.139Z,97395.34
2018-07-21T15:08:45.753Z,97402.16
2018-07-21T15:11:21.776Z,97399.09
2018-07-21T15:13:50.504Z,97397.02
2018-07-21T15:16:19.273Z,97393.64
2018-07-21T15:18:48.140Z,97396.54
2018-07-21T15:21:17.539Z,97392.32
2018-07-21T15:23:46.229Z,97385.47
2018-07-21T15:26:14.963Z,97394.84
2018-07-21T15:28:43.611Z,97384.67
2018-07-21T15:31:12.306Z,97386.16
2018-07-21T15:33:40.930Z,97385.47
2018-07-21T15:36:09.577Z,97386.07
2018-07-21T15:38:38.339Z,97381.84
2018-07-21T15:41:07.082Z,97385.69
2018-07-21T15:43:35.768Z,97386.89
2018-07-21T15:46:04.630Z,97390.16
2018-07-21T15:48:33.360Z,97391.09
2018-07-21T15:51:02.104Z,97387.41
2018-07-21T15:53:30.877Z,97392.39
2018-07-21T15:55:59.545Z,97391.02
2018-07-21T15:58:28.147Z,97390.89
2018-07-21T16:00:56.934Z,97390.89
2018-07-21T16:03:25.694Z,97390.30
2018-07-21T16:05:54.900Z,97394.67
2018-07-21T16:08:24.290Z,97384.88
2018-07-21T16:10:53.343Z,97391.09
2018-07-21T16:13:22.042Z,97391.27
2018-07-21T16:15:50.761Z,97391.25
2018-07-21T16:18:19.615Z,97385.55
2018-07-21T16:20:48.363Z,97384.83
2018-07-21T16:23:17.166Z,97388.53
2018-07-21T16:25:46.252Z,97382.83
2018-07-21T16:28:14.999Z,97388.77
2018-07-21T16:30:44.389Z,97386.59
2018-07-21T16:33:13.064Z,97393.03
2018-07-21T16:35:41.663Z,97393.81
2018-07-21T16:38:10.449Z,97389.42
2018-07-21T16:40:39.136Z,97395.75
2018-07-21T16:43:08.584Z,97391.23
2018-07-21T16:45:37.259Z,97393.15
2018-07-21T16:48:06.263Z,97390.92
2018-07-21T16:50:34.964Z,97393.30
2018-07-21T16:53:03.588Z,97391.63
2018-07-21T16:55:32.233Z,97389.27
2018-07-21T16:58:00.913Z,97392.34
2018-07-21T17:00:30.087Z,97391.63
2018-07-21T17:02:58.721Z,97391.71
2018-07-21T17:05:27.564Z,97394.70
2018-07-21T17:07:56.971Z,97389.73
2018-07-21T17:10:25.923Z,97391.28
2018-07-21T17:12:54.669Z,97389.30
2018-07-21T17:15:23.551Z,97382.47
2018-07-21T17:17:52.205Z,97382.54
2018-07-21T17:20:21.151Z,97383.94
2018-07-21T17:22:49.926Z,97391.41
2018-07-21T17:25:18.614Z,97394.91
2018-07-21T17:27:47.344Z,97383.64
2018-07-21T17:30:16.039Z,97385.67
2018-07-21T17:32:44.700Z,97392.50
2018-07-21T17:35:13.517Z,97392.16
2018-07-21T17:37:42.241Z,97389.55
2018-07-21T17:40:11.013Z,97389.19
2018-07-21T17:42:40.547Z,97390.34
2018-07-21T17:45:09.413Z,97398.41
2018-07-21T17:47:38.840Z,97392.77
2018-07-21T17:50:07.491Z,97395.47
2018-07-21T17:52:36.194Z,97395.11
2018-07-21T17:55:06.154Z,97395.33
2018-07-21T17:57:35.136Z,97392.30
2018-07-21T18:00:03.988Z,97400.39
2018-07-21T18:02:33.281Z,97396.73
2018-07-21T18:05:01.928Z,97393.78
2018-07-21T18:07:30.764Z,97398.88
2018-07-21T18:09:59.821Z,97390.84
2018-07-21T18:12:29.051Z,97396.66
2018-07-21T18:14:57.737Z,97392.52
2018-07-21T18:17:26.572Z,97385.55
2018-07-21T18:19:55.295Z,97393.89
2018-07-21T18:22:23.944Z,97397.31
2018-07-21T18:24:52.862Z,97399.02
2018-07-21T18:27:21.480Z,97396.23
2018-07-21T18:29:50.214Z,97399.19
2018-07-21T18:32:19.004Z,97391.05
2018-07-21T18:34:48.615Z,97391.14
2018-07-21T18:37:17.209Z,97394.89
2018-07-21T18:39:45.925Z,97389.68
2018-07-21T18:42:14.587Z,97384.81
2018-07-21T18:44:43.283Z,97395.13
2018-07-21T18:47:12.111Z,97393.08
2018-07-21T18:49:40.795Z,97397.81
2018-07-21T18:52:09.510Z,97394.37
2018-07-21T18:54:38.130Z,97390.28
2018-07-21T18:57:06.804Z,97397.59
2018-07-21T18:59:35.622Z,97397.59
2018-07-21T19:02:04.266Z,97394.50
2018-07-21T19:04:33.032Z,97399.38
2018-07-21T19:07:01.678Z,97395.88
2018-07-21T19:09:30.499Z,97393.64
2018-07-21T19:12:04.413Z,97397.86
2018-07-21T19:14:33.120Z,97392.00
2018-07-21T19:17:01.922Z,97404.41
2018-07-21T19:19:35.984Z,97403.42
2018-07-21T19:22:05.398Z,97406.48
2018-07-21T19:24:34.335Z,97415.30
2018-07-21T19:27:08.396Z,97418.50
2018-07-21T19:29:37.177Z,97419.60
2018-07-21T19:32:11.331Z,97423.48
2018-07-21T19:34:40.352Z,97429.91
2018-07-21T19:37:15.069Z,97434.91
2018-07-21T19:39:44.122Z,97437.70
2018-07-21T19:42:12.808Z,97448.26
2018-07-21T19:44:41.694Z,97444.78
2018-07-21T19:47:10.583Z,97450.27
2018-07-21T19:49:39.228Z,97454.41
2018-07-21T19:52:08.044Z,97452.74
2018-07-21T19:54:36.839Z,97462.03
2018-07-21T19:57:05.602Z,97464.63
2018-07-21T19:59:34.915Z,97470.53
2018-07-21T20:02:03.934Z,97470.00
2018-07-21T20:04:32.605Z,97469.87
2018-07-21T20:07:01.342Z,97472.67
2018-07-21T20:09:30.079Z,97467.80
2018-07-21T20:11:58.802Z,97467.23
2018-07-21T20:14:27.463Z,97473.20
2018-07-21T20:16:56.143Z,97466.38
2018-07-21T20:19:24.808Z,97476.70
2018-07-21T20:21:54.174Z,97485.58
2018-07-21T20:24:23.091Z,97477.01
2018-07-21T20:26:51.744Z,97477.16
2018-07-21T20:29:23.549Z,97484.53
2018-07-21T20:31:52.281Z,97485.23
2018-07-21T20:34:20.897Z,97485.36
2018-07-21T20:36:49.842Z,97484.40
2018-07-21T20:39:18.571Z,97489.85
2018-07-21T20:41:48.039Z,97490.91
2018-07-21T20:44:16.713Z,97496.23
2018-07-21T20:46:45.929Z,97498.14
2018-07-21T20:49:14.612Z,97496.23
2018-07-21T20:51:43.886Z,97486.69
2018-07-21T20:54:12.617Z,97489.47
2018-07-21T20:56:41.626Z,97488.30
2018-07-21T20:59:10.466Z,97487.17
2018-07-21T21:01:40.136Z,97488.31
2018-07-21T21:04:08.940Z,97485.42
2018-07-21T21:06:37.607Z,97488.75
2018-07-21T21:09:08.601Z,97489.67
2018-07-21T21:11:37.400Z,97490.44
2018-07-21T21:14:06.125Z,97483.89
2018-07-21T21:16:34.794Z,97486.05
2018-07-21T21:19:03.565Z,97484.52
2018-07-21T21:21:32.289Z,97479.09
2018-07-21T21:24:01.823Z,97475.23
2018-07-21T21:26:30.472Z,97479.39
2018-07-21T21:28:59.206Z,97476.34
2018-07-21T21:31:27.933Z,97477.73
2018-07-21T21:33:56.928Z,97480.09
2018-07-21T21:36:25.621Z,97482.09
2018-07-21T21:38:54.287Z,97481.57
2018-07-21T21:41:23.711Z,97484.64
2018-07-21T21:43:52.441Z,97488.39
2018-07-21T21:46:23.083Z,97488.75
2018-07-21T21:48:55.643Z,97490.75
2018-07-21T21:51:26.293Z,97484.89
2018-07-21T21:53:57.437Z,97477.72
2018-07-21T21:56:28.633Z,97480.70
2018-07-21T21:59:00.893Z,97479.18
2018-07-21T22:01:32.636Z,97488.88
2018-07-21T22:04:03.325Z,97486.59
2018-07-21T22:06:35.045Z,97486.47
2018-07-21T22:09:11.025Z,97485.58
2018-07-21T22:11:40.672Z,97486.91
2018-07-21T22:14:11.046Z,97488.55
2018-07-21T22:16:40.103Z,97489.78
2018-07-21T22:19:09.160Z,97492.60
2018-07-21T22:21:37.850Z,97484.86
2018-07-21T22:24:06.863Z,97485.20
2018-07-21T22:26:35.595Z,97484.33
2018-07-21T22:29:04.280Z,97482.17
2018-07-21T22:31:33.627Z,97483.76
2018-07-21T22:34:02.478Z,97485.13
2018-07-21T22:36:32.198Z,97483.19
2018-07-21T22:39:01.069Z,97484.55
2018-07-21T22:41:29.897Z,97486.83
2018-07-21T22:43:59.144Z,97487.53
2018-07-21T22:46:27.940Z,97482.88
2018-07-21T22:48:57.053Z,97481.67
2018-07-21T22:51:25.703Z,97491.41
2018-07-21T22:53:54.539Z,97484.59
2018-07-21T22:56:23.158Z,97486.39
2018-07-21T22:58:51.854Z,97481.95
2018-07-21T23:01:21.283Z,97481.60
2018-07-21T23:03:50.727Z,97476.47
2018-07-21T23:06:19.716Z,97482.00
2018-07-21T23:08:48.938Z,97477.63
2018-07-21T23:11:18.232Z,97471.94
2018-07-21T23:13:46.883Z,97482.03
2018-07-21T23:16:15.922Z,97482.28
2018-07-21T23:18:44.735Z,97473.39
2018-07-21T23:21:13.392Z,97470.45
2018-07-21T23:23:42.093Z,97475.91
2018-07-21T23:26:10.736Z,97473.05
2018-07-21T23:28:39.491Z,97471.12
2018-07-21T23:31:08.528Z,97475.78
2018-07-21T23:33:37.150Z,97482.81
2018-07-21T23:36:06.405Z,97479.58
2018-07-21T23:38:35.786Z,97481.16
2018-07-21T23:41:04.449Z,97475.12
2018-07-21T23:43:33.031Z,97476.02
2018-07-21T23:46:02.159Z,97468.66
2018-07-21T23:48:30.849Z,97470.59
2018-07-21T23:51:00.311Z,97468.16
2018-07-21T23:53:29.051Z,97465.34
2018-07-21T23:55:58.248Z,97467.15
2018-07-21T23:58:26.898Z,97460.68
